sensor_id;sensor_type;location;lat;lon;timestamp;pressure;altitude;pressure_sealevel;temperature;humidity
13612;BME280;6877;51.436;6.774;2023-02-13T00:01:40;103310.41;;;7.75;89.05
13612;BME280;6877;51.436;6.774;2023-02-13T00:04:07;103306.94;;;7.75;89.27
13612;BME280;6877;51.436;6.774;2023-02-13T00:06:33;103299.19;;;7.76;89.15
13612;BME280;6877;51.436;6.774;2023-02-13T00:09:00;103306.03;;;7.74;89.18
13612;BME280;6877;51.436;6.774;2023-02-13T00:11:32;103298.19;;;7.73;89.26
13612;BME280;6877;51.436;6.774;2023-02-13T00:13:59;103300.00;;;7.75;89.09
13612;BME280;6877;51.436;6.774;2023-02-13T00:16:25;103295.69;;;7.76;89.06
13612;BME280;6877;51.436;6.774;2023-02-13T00:18:56;103294.84;;;7.77;89.03
13612;BME280;6877;51.436;6.774;2023-02-13T00:21:23;103299.09;;;7.75;88.97
13612;BME280;6877;51.436;6.774;2023-02-13T00:23:54;103295.63;;;7.74;89.28
13612;BME280;6877;51.436;6.774;2023-02-13T00:26:25;103289.53;;;7.74;89.37
13612;BME280;6877;51.436;6.774;2023-02-13T00:28:52;103285.09;;;7.71;89.29
13612;BME280;6877;51.436;6.774;2023-02-13T00:31:20;103289.41;;;7.71;89.46
13612;BME280;6877;51.436;6.774;2023-02-13T00:33:51;103290.25;;;7.70;89.48
13612;BME280;6877;51.436;6.774;2023-02-13T00:36:20;103286.72;;;7.68;89.61
13612;BME280;6877;51.436;6.774;2023-02-13T00:38:53;103284.09;;;7.68;89.64
13612;BME280;6877;51.436;6.774;2023-02-13T00:41:20;103283.22;;;7.67;89.70
13612;BME280;6877;51.436;6.774;2023-02-13T00:43:47;103279.72;;;7.66;89.79
13612;BME280;6877;51.436;6.774;2023-02-13T00:46:19;103279.78;;;7.68;89.69
13612;BME280;6877;51.436;6.774;2023-02-13T00:48:50;103278.00;;;7.67;89.85
13612;BME280;6877;51.436;6.774;2023-02-13T00:51:17;103292.78;;;7.66;89.88
13612;BME280;6877;51.436;6.774;2023-02-13T00:53:48;103287.50;;;7.65;89.87
13612;BME280;6877;51.436;6.774;2023-02-13T00:56:15;103288.25;;;7.62;89.95
13612;BME280;6877;51.436;6.774;2023-02-13T00:58:46;103280.44;;;7.62;90.09
13612;BME280;6877;51.436;6.774;2023-02-13T01:01:17;103288.25;;;7.62;90.14
13612;BME280;6877;51.436;6.774;2023-02-13T01:03:44;103280.44;;;7.62;89.99
13612;BME280;6877;51.436;6.774;2023-02-13T01:06:10;103289.09;;;7.61;90.10
13612;BME280;6877;51.436;6.774;2023-02-13T01:08:40;103286.50;;;7.61;90.09
13612;BME280;6877;51.436;6.774;2023-02-13T01:11:07;103286.47;;;7.60;90.11
13612;BME280;6877;51.436;6.774;2023-02-13T01:13:39;103290.72;;;7.58;90.10
13612;BME280;6877;51.436;6.774;2023-02-13T01:16:05;103284.56;;;7.56;90.19
13612;BME280;6877;51.436;6.774;2023-02-13T01:18:32;103294.97;;;7.56;89.97
13612;BME280;6877;51.436;6.774;2023-02-13T01:21:07;103288.84;;;7.54;89.91
13612;BME280;6877;51.436;6.774;2023-02-13T01:23:37;103283.53;;;7.51;89.82
13612;BME280;6877;51.436;6.774;2023-02-13T01:26:15;103285.34;;;7.53;89.60
13612;BME280;6877;51.436;6.774;2023-02-13T01:28:42;103293.16;;;7.53;89.65
13612;BME280;6877;51.436;6.774;2023-02-13T01:31:14;103285.44;;;7.56;88.95
13612;BME280;6877;51.436;6.774;2023-02-13T01:33:40;103280.19;;;7.55;88.89
13612;BME280;6877;51.436;6.774;2023-02-13T01:36:08;103278.38;;;7.52;88.85
13612;BME280;6877;51.436;6.774;2023-02-13T01:38:35;103278.38;;;7.52;88.89
13612;BME280;6877;51.436;6.774;2023-02-13T01:41:08;103276.59;;;7.51;88.82
13612;BME280;6877;51.436;6.774;2023-02-13T01:46:18;103273.88;;;7.48;89.03
13612;BME280;6877;51.436;6.774;2023-02-13T01:48:53;103268.59;;;7.47;88.91
13612;BME280;6877;51.436;6.774;2023-02-13T01:51:24;103272.91;;;7.45;89.19
13612;BME280;6877;51.436;6.774;2023-02-13T01:53:57;103271.94;;;7.42;89.41
13612;BME280;6877;51.436;6.774;2023-02-13T01:56:33;103271.91;;;7.41;89.44
13612;BME280;6877;51.436;6.774;2023-02-13T01:59:09;103265.78;;;7.40;89.28
13612;BME280;6877;51.436;6.774;2023-02-13T02:01:43;103259.66;;;7.38;89.24
13612;BME280;6877;51.436;6.774;2023-02-13T02:04:14;103265.69;;;7.37;89.51
13612;BME280;6877;51.436;6.774;2023-02-13T02:06:52;103257.75;;;7.34;89.49
13612;BME280;6877;51.436;6.774;2023-02-13T02:09:24;103259.38;;;7.31;89.82
13612;BME280;6877;51.436;6.774;2023-02-13T02:14:35;103263.88;;;7.35;89.54
13612;BME280;6877;51.436;6.774;2023-02-13T02:17:03;103265.53;;;7.33;89.71
13612;BME280;6877;51.436;6.774;2023-02-13T02:34:26;103262.50;;;7.20;90.21
13612;BME280;6877;51.436;6.774;2023-02-13T02:48:02;103255.09;;;7.07;90.29
13612;BME280;6877;51.436;6.774;2023-02-13T02:51:06;103259.44;;;7.08;90.37
13612;BME280;6877;51.436;6.774;2023-02-13T02:53:42;103257.69;;;7.07;90.52
13612;BME280;6877;51.436;6.774;2023-02-13T02:59:02;103263.72;;;7.06;90.68
13612;BME280;6877;51.436;6.774;2023-02-13T03:01:48;103262.88;;;7.07;90.63
13612;BME280;6877;51.436;6.774;2023-02-13T03:04:38;103269.09;;;7.11;90.48
13612;BME280;6877;51.436;6.774;2023-02-13T03:07:24;103266.50;;;7.11;90.31
13612;BME280;6877;51.436;6.774;2023-02-13T03:09:52;103254.25;;;7.08;90.26
13612;BME280;6877;51.436;6.774;2023-02-13T03:12:50;103262.06;;;7.08;90.25
13612;BME280;6877;51.436;6.774;2023-02-13T03:15:44;103262.88;;;7.07;90.39
13612;BME280;6877;51.436;6.774;2023-02-13T03:18:32;103257.56;;;7.04;90.34
13612;BME280;6877;51.436;6.774;2023-02-13T03:30:26;103253.13;;;7.02;90.54
13612;BME280;6877;51.436;6.774;2023-02-13T03:41:41;103270.19;;;6.93;91.00
13612;BME280;6877;51.436;6.774;2023-02-13T03:44:32;103263.28;;;6.94;91.06
13612;BME280;6877;51.436;6.774;2023-02-13T03:47:08;103253.69;;;6.93;90.94
13612;BME280;6877;51.436;6.774;2023-02-13T03:49:44;103256.28;;;6.93;91.12
13612;BME280;6877;51.436;6.774;2023-02-13T03:52:49;103268.41;;;6.92;90.86
13612;BME280;6877;51.436;6.774;2023-02-13T03:55:21;103263.22;;;6.92;91.16
13612;BME280;6877;51.436;6.774;2023-02-13T03:58:16;103269.25;;;6.91;91.24
13612;BME280;6877;51.436;6.774;2023-02-13T04:01:11;103270.13;;;6.92;91.30
13612;BME280;6877;51.436;6.774;2023-02-13T04:06:29;103267.41;;;6.89;91.41
13612;BME280;6877;51.436;6.774;2023-02-13T04:09:02;103277.84;;;6.89;91.63
13612;BME280;6877;51.436;6.774;2023-02-13T04:11:44;103268.19;;;6.86;91.66
13612;BME280;6877;51.436;6.774;2023-02-13T04:14:23;103264.69;;;6.86;91.52
13612;BME280;6877;51.436;6.774;2023-02-13T04:17:12;103263.75;;;6.84;91.52
13612;BME280;6877;51.436;6.774;2023-02-13T04:19:46;103261.16;;;6.84;91.76
13612;BME280;6877;51.436;6.774;2023-02-13T04:22:13;103266.47;;;6.87;91.87
13612;BME280;6877;51.436;6.774;2023-02-13T04:24:45;103265.53;;;6.85;91.70
13612;BME280;6877;51.436;6.774;2023-02-13T04:27:13;103261.16;;;6.84;92.04
13612;BME280;6877;51.436;6.774;2023-02-13T04:29:45;103255.91;;;6.82;91.99
13612;BME280;6877;51.436;6.774;2023-02-13T04:32:12;103259.34;;;6.81;92.18
13612;BME280;6877;51.436;6.774;2023-02-13T04:34:45;103262.00;;;6.83;92.37
13612;BME280;6877;51.436;6.774;2023-02-13T04:37:11;103262.00;;;6.83;92.33
13612;BME280;6877;51.436;6.774;2023-02-13T04:39:42;103267.06;;;6.80;92.32
13612;BME280;6877;51.436;6.774;2023-02-13T04:42:14;103267.84;;;6.77;92.47
13612;BME280;6877;51.436;6.774;2023-02-13T04:44:40;103271.41;;;6.79;92.72
13612;BME280;6877;51.436;6.774;2023-02-13T04:47:06;103265.31;;;6.79;92.77
13612;BME280;6877;51.436;6.774;2023-02-13T04:49:38;103271.41;;;6.79;92.68
13612;BME280;6877;51.436;6.774;2023-02-13T04:52:04;103268.72;;;6.78;92.80
13612;BME280;6877;51.436;6.774;2023-02-13T04:54:36;103263.53;;;6.78;92.95
13612;BME280;6877;51.436;6.774;2023-02-13T04:57:07;103271.41;;;6.79;92.83
13612;BME280;6877;51.436;6.774;2023-02-13T04:59:38;103256.63;;;6.78;93.04
13612;BME280;6877;51.436;6.774;2023-02-13T05:02:10;103261.88;;;6.80;92.94
13612;BME280;6877;51.436;6.774;2023-02-13T05:04:36;103261.00;;;6.79;93.05
13612;BME280;6877;51.436;6.774;2023-02-13T05:07:08;103263.53;;;6.78;93.00
13612;BME280;6877;51.436;6.774;2023-02-13T05:09:39;103260.03;;;6.77;93.10
13612;BME280;6877;51.436;6.774;2023-02-13T05:12:06;103263.53;;;6.78;92.98
13612;BME280;6877;51.436;6.774;2023-02-13T05:14:32;103257.50;;;6.79;93.20
13612;BME280;6877;51.436;6.774;2023-02-13T05:16:59;103257.44;;;6.77;93.22
13612;BME280;6877;51.436;6.774;2023-02-13T05:19:25;103258.28;;;6.76;93.21
13612;BME280;6877;51.436;6.774;2023-02-13T05:21:56;103256.50;;;6.75;93.28
13612;BME280;6877;51.436;6.774;2023-02-13T05:24:42;103258.94;;;6.70;93.50
13612;BME280;6877;51.436;6.774;2023-02-13T05:27:08;103252.69;;;6.65;93.56
13612;BME280;6877;51.436;6.774;2023-02-13T05:29:39;103250.72;;;6.60;93.58
13612;BME280;6877;51.436;6.774;2023-02-13T05:32:06;103258.41;;;6.57;94.17
13612;BME280;6877;51.436;6.774;2023-02-13T05:34:32;103252.22;;;6.53;94.51
13612;BME280;6877;51.436;6.774;2023-02-13T05:36:59;103248.53;;;6.48;94.57
13612;BME280;6877;51.436;6.774;2023-02-13T05:39:30;103253.50;;;6.42;94.94
13612;BME280;6877;51.436;6.774;2023-02-13T05:42:03;103243.81;;;6.38;95.42
13612;BME280;6877;51.436;6.774;2023-02-13T05:44:32;103252.22;;;6.31;95.45
13612;BME280;6877;51.436;6.774;2023-02-13T05:46:59;103257.94;;;6.22;95.97
13612;BME280;6877;51.436;6.774;2023-02-13T05:49:25;103250.78;;;6.16;96.31
13612;BME280;6877;51.436;6.774;2023-02-13T05:51:52;103251.38;;;6.09;96.75
13612;BME280;6877;51.436;6.774;2023-02-13T05:54:23;103253.34;;;5.94;97.11
13612;BME280;6877;51.436;6.774;2023-02-13T05:56:49;103248.56;;;5.84;98.05
13612;BME280;6877;51.436;6.774;2023-02-13T05:59:21;103250.78;;;5.74;98.13
13612;BME280;6877;51.436;6.774;2023-02-13T06:01:47;103254.75;;;5.66;98.96
13612;BME280;6877;51.436;6.774;2023-02-13T06:04:19;103243.72;;;5.51;99.45
13612;BME280;6877;51.436;6.774;2023-02-13T06:06:45;103242.53;;;5.43;100.00
13612;BME280;6877;51.436;6.774;2023-02-13T06:09:11;103241.88;;;5.27;100.00
13612;BME280;6877;51.436;6.774;2023-02-13T06:11:38;103242.34;;;5.19;100.00
13612;BME280;6877;51.436;6.774;2023-02-13T06:14:04;103242.97;;;5.13;100.00
13612;BME280;6877;51.436;6.774;2023-02-13T06:16:31;103242.69;;;5.07;100.00
13612;BME280;6877;51.436;6.774;2023-02-13T06:19:02;103236.75;;;5.09;100.00
13612;BME280;6877;51.436;6.774;2023-02-13T06:21:34;103235.75;;;5.06;100.00
13612;BME280;6877;51.436;6.774;2023-02-13T06:24:04;103244.09;;;4.99;100.00
13612;BME280;6877;51.436;6.774;2023-02-13T06:26:30;103234.38;;;4.95;100.00
13612;BME280;6877;51.436;6.774;2023-02-13T06:28:57;103242.66;;;4.86;100.00
13612;BME280;6877;51.436;6.774;2023-02-13T06:31:23;103236.97;;;4.75;100.00
13612;BME280;6877;51.436;6.774;2023-02-13T06:33:50;103241.53;;;4.61;100.00
13612;BME280;6877;51.436;6.774;2023-02-13T06:36:16;103243.97;;;4.58;100.00
13612;BME280;6877;51.436;6.774;2023-02-13T06:38:43;103238.44;;;4.51;100.00
13612;BME280;6877;51.436;6.774;2023-02-13T06:41:09;103242.38;;;4.43;100.00
13612;BME280;6877;51.436;6.774;2023-02-13T06:43:36;103241.94;;;4.33;100.00
13612;BME280;6877;51.436;6.774;2023-02-13T06:46:06;103241.28;;;4.37;100.00
13612;BME280;6877;51.436;6.774;2023-02-13T06:48:33;103237.88;;;4.38;100.00
13612;BME280;6877;51.436;6.774;2023-02-13T06:51:00;103235.72;;;4.48;100.00
13612;BME280;6877;51.436;6.774;2023-02-13T06:53:29;103236.75;;;4.51;100.00
13612;BME280;6877;51.436;6.774;2023-02-13T06:56:03;103242.81;;;4.52;100.00
13612;BME280;6877;51.436;6.774;2023-02-13T06:58:31;103240.28;;;4.53;100.00
13612;BME280;6877;51.436;6.774;2023-02-13T07:00:59;103240.38;;;4.55;100.00
13612;BME280;6877;51.436;6.774;2023-02-13T07:03:25;103238.44;;;4.51;100.00
13612;BME280;6877;51.436;6.774;2023-02-13T07:05:52;103238.22;;;4.46;100.00
13612;BME280;6877;51.436;6.774;2023-02-13T07:08:18;103233.78;;;4.44;100.00
13612;BME280;6877;51.436;6.774;2023-02-13T07:10:45;103239.06;;;4.45;100.00
13612;BME280;6877;51.436;6.774;2023-02-13T07:13:16;103243.59;;;4.51;100.00
13612;BME280;6877;51.436;6.774;2023-02-13T07:15:42;103242.66;;;4.49;100.00
13612;BME280;6877;51.436;6.774;2023-02-13T07:18:14;103251.00;;;4.41;100.00
13612;BME280;6877;51.436;6.774;2023-02-13T07:20:41;103252.22;;;4.50;100.00
13612;BME280;6877;51.436;6.774;2023-02-13T07:23:07;103248.88;;;4.52;100.00
13612;BME280;6877;51.436;6.774;2023-02-13T07:25:34;103256.06;;;4.58;100.00
13612;BME280;6877;51.436;6.774;2023-02-13T07:28:04;103265.75;;;4.62;100.00
13612;BME280;6877;51.436;6.774;2023-02-13T07:30:36;103262.34;;;4.63;100.00
13612;BME280;6877;51.436;6.774;2023-02-13T07:33:03;103264.31;;;4.69;100.00
13612;BME280;6877;51.436;6.774;2023-02-13T07:35:30;103263.00;;;4.77;100.00
13612;BME280;6877;51.436;6.774;2023-02-13T07:38:03;103260.88;;;4.87;100.00
13612;BME280;6877;51.436;6.774;2023-02-13T07:40:29;103260.13;;;4.90;100.00
13612;BME280;6877;51.436;6.774;2023-02-13T07:42:59;103266.47;;;4.97;100.00
13612;BME280;6877;51.436;6.774;2023-02-13T07:45:25;103265.88;;;5.02;100.00
13612;BME280;6877;51.436;6.774;2023-02-13T07:47:54;103271.31;;;5.08;100.00
13612;BME280;6877;51.436;6.774;2023-02-13T07:50:21;103273.44;;;5.17;100.00
13612;BME280;6877;51.436;6.774;2023-02-13T07:52:54;103275.53;;;5.26;100.00
13612;BME280;6877;51.436;6.774;2023-02-13T07:55:27;103280.06;;;5.30;100.00
13612;BME280;6877;51.436;6.774;2023-02-13T07:57:54;103281.13;;;5.35;100.00
13612;BME280;6877;51.436;6.774;2023-02-13T08:00:21;103278.88;;;5.43;100.00
13612;BME280;6877;51.436;6.774;2023-02-13T08:02:48;103280.84;;;5.48;100.00
13612;BME280;6877;51.436;6.774;2023-02-13T08:05:14;103275.97;;;5.56;100.00
13612;BME280;6877;51.436;6.774;2023-02-13T08:07:41;103280.56;;;5.62;100.00
13612;BME280;6877;51.436;6.774;2023-02-13T08:10:10;103284.31;;;5.68;100.00
13612;BME280;6877;51.436;6.774;2023-02-13T08:12:56;103284.47;;;5.73;100.00
13612;BME280;6877;51.436;6.774;2023-02-13T08:15:23;103280.41;;;5.79;100.00
13612;BME280;6877;51.436;6.774;2023-02-13T08:17:49;103286.84;;;5.88;100.00
13612;BME280;6877;51.436;6.774;2023-02-13T08:20:16;103286.28;;;5.95;99.34
13612;BME280;6877;51.436;6.774;2023-02-13T08:22:42;103287.44;;;6.01;99.36
13612;BME280;6877;51.436;6.774;2023-02-13T08:25:09;103285.16;;;6.09;99.31
13612;BME280;6877;51.436;6.774;2023-02-13T08:27:40;103285.44;;;6.17;97.93
13612;BME280;6877;51.436;6.774;2023-02-13T08:30:12;103285.81;;;6.26;97.05
13612;BME280;6877;51.436;6.774;2023-02-13T08:32:40;103286.19;;;6.35;96.54
13612;BME280;6877;51.436;6.774;2023-02-13T08:35:06;103281.75;;;6.78;95.65
13612;BME280;6877;51.436;6.774;2023-02-13T08:37:33;103279.91;;;8.82;93.10
13612;BME280;6877;51.436;6.774;2023-02-13T08:39:59;103286.00;;;11.82;80.81
13612;BME280;6877;51.436;6.774;2023-02-13T08:42:26;103284.91;;;13.67;67.36
13612;BME280;6877;51.436;6.774;2023-02-13T08:44:52;103287.97;;;14.21;65.02
13612;BME280;6877;51.436;6.774;2023-02-13T08:47:19;103283.47;;;14.00;61.96
13612;BME280;6877;51.436;6.774;2023-02-13T08:49:57;103282.59;;;14.04;59.83
13612;BME280;6877;51.436;6.774;2023-02-13T08:52:24;103278.66;;;14.74;58.50
13612;BME280;6877;51.436;6.774;2023-02-13T08:54:50;103288.59;;;16.10;55.28
13612;BME280;6877;51.436;6.774;2023-02-13T08:57:17;103286.69;;;16.81;51.46
13612;BME280;6877;51.436;6.774;2023-02-13T08:59:43;103284.06;;;16.58;50.37
13612;BME280;6877;51.436;6.774;2023-02-13T09:02:11;103280.56;;;16.51;50.42
13612;BME280;6877;51.436;6.774;2023-02-13T09:04:37;103284.09;;;16.49;50.14
13612;BME280;6877;51.436;6.774;2023-02-13T09:07:04;103290.34;;;16.08;50.81
13612;BME280;6877;51.436;6.774;2023-02-13T09:10:04;103284.09;;;16.45;49.39
13612;BME280;6877;51.436;6.774;2023-02-13T09:12:39;103277.97;;;16.31;48.63
13612;BME280;6877;51.436;6.774;2023-02-13T09:15:06;103282.44;;;16.05;49.69
13612;BME280;6877;51.436;6.774;2023-02-13T09:17:33;103292.13;;;15.96;49.16
13612;BME280;6877;51.436;6.774;2023-02-13T09:20:05;103291.13;;;15.18;51.24
13612;BME280;6877;51.436;6.774;2023-02-13T09:22:32;103281.41;;;15.03;51.78
13612;BME280;6877;51.436;6.774;2023-02-13T09:24:58;103289.41;;;15.26;51.16
13612;BME280;6877;51.436;6.774;2023-02-13T09:27:29;103279.78;;;15.79;50.68
13612;BME280;6877;51.436;6.774;2023-02-13T09:29:56;103283.31;;;16.20;49.45
13612;BME280;6877;51.436;6.774;2023-02-13T09:32:22;103278.91;;;16.03;48.80
13612;BME280;6877;51.436;6.774;2023-02-13T09:34:52;103279.75;;;15.48;49.98
13612;BME280;6877;51.436;6.774;2023-02-13T09:37:24;103282.44;;;15.71;49.52
13612;BME280;6877;51.436;6.774;2023-02-13T09:39:50;103284.16;;;15.63;49.19
13612;BME280;6877;51.436;6.774;2023-02-13T09:42:20;103279.75;;;15.42;49.70
13612;BME280;6877;51.436;6.774;2023-02-13T09:44:58;103283.31;;;16.17;48.78
13612;BME280;6877;51.436;6.774;2023-02-13T09:47:31;103288.25;;;17.19;46.19
13612;BME280;6877;51.436;6.774;2023-02-13T09:50:06;103284.97;;;18.85;42.83
13612;BME280;6877;51.436;6.774;2023-02-13T09:52:37;103285.19;;;20.38;38.23
13612;BME280;6877;51.436;6.774;2023-02-13T09:55:34;103292.94;;;22.07;35.70
13612;BME280;6877;51.436;6.774;2023-02-13T09:58:16;103285.97;;;23.53;33.02
13612;BME280;6877;51.436;6.774;2023-02-13T10:00:50;103283.63;;;24.70;31.26
13612;BME280;6877;51.436;6.774;2023-02-13T10:03:26;103288.69;;;25.67;29.89
13612;BME280;6877;51.436;6.774;2023-02-13T10:06:14;103288.06;;;26.24;28.60
13612;BME280;6877;51.436;6.774;2023-02-13T10:11:40;103279.44;;;27.32;26.50
13612;BME280;6877;51.436;6.774;2023-02-13T10:17:15;103280.47;;;27.83;25.30
13612;BME280;6877;51.436;6.774;2023-02-13T10:19:58;103277.44;;;28.07;24.75
13612;BME280;6877;51.436;6.774;2023-02-13T10:22:34;103285.63;;;28.38;24.47
13612;BME280;6877;51.436;6.774;2023-02-13T10:25:24;103279.63;;;28.98;24.48
13612;BME280;6877;51.436;6.774;2023-02-13T10:27:54;103282.22;;;29.31;23.62
13612;BME280;6877;51.436;6.774;2023-02-13T10:30:27;103285.75;;;29.02;23.14
13612;BME280;6877;51.436;6.774;2023-02-13T10:33:09;103289.28;;;28.86;23.44
13612;BME280;6877;51.436;6.774;2023-02-13T10:35:49;103291.66;;;28.26;23.90
13612;BME280;6877;51.436;6.774;2023-02-13T10:38:24;103282.50;;;28.63;23.30
13612;BME280;6877;51.436;6.774;2023-02-13T10:57:17;103269.44;;;28.56;22.07
13612;BME280;6877;51.436;6.774;2023-02-13T11:03:01;103257.97;;;28.68;22.57
13612;BME280;6877;51.436;6.774;2023-02-13T11:05:37;103251.53;;;28.55;22.50
13612;BME280;6877;51.436;6.774;2023-02-13T11:08:25;103256.16;;;28.35;22.75
13612;BME280;6877;51.436;6.774;2023-02-13T11:10:57;103252.50;;;27.51;23.09
13612;BME280;6877;51.436;6.774;2023-02-13T11:13:26;103250.41;;;24.76;26.64
13612;BME280;6877;51.436;6.774;2023-02-13T11:16:06;103253.75;;;21.41;30.82
13612;BME280;6877;51.436;6.774;2023-02-13T11:18:35;103243.53;;;18.78;35.35
13612;BME280;6877;51.436;6.774;2023-02-13T11:21:15;103243.41;;;16.92;38.94
13612;BME280;6877;51.436;6.774;2023-02-13T11:23:49;103234.94;;;15.74;41.73
13612;BME280;6877;51.436;6.774;2023-02-13T11:26:32;103238.28;;;14.87;44.68
13612;BME280;6877;51.436;6.774;2023-02-13T11:29:03;103234.38;;;14.14;46.49
13612;BME280;6877;51.436;6.774;2023-02-13T11:31:36;103235.75;;;13.59;48.29
13612;BME280;6877;51.436;6.774;2023-02-13T11:34:26;103224.91;;;13.25;50.25
13612;BME280;6877;51.436;6.774;2023-02-13T11:37:08;103220.34;;;13.10;51.16
13612;BME280;6877;51.436;6.774;2023-02-13T11:39:40;103220.25;;;12.99;51.71
13612;BME280;6877;51.436;6.774;2023-02-13T11:42:27;103223.66;;;12.94;52.06
13612;BME280;6877;51.436;6.774;2023-02-13T11:45:22;103219.22;;;12.87;52.68
13612;BME280;6877;51.436;6.774;2023-02-13T11:47:49;103208.53;;;12.73;53.07
13612;BME280;6877;51.436;6.774;2023-02-13T11:50:28;103210.09;;;12.57;54.00
13612;BME280;6877;51.436;6.774;2023-02-13T11:53:07;103204.88;;;12.60;53.98
13612;BME280;6877;51.436;6.774;2023-02-13T11:55:39;103202.22;;;12.57;54.33
13612;BME280;6877;51.436;6.774;2023-02-13T12:00:40;103196.13;;;12.60;54.48
13612;BME280;6877;51.436;6.774;2023-02-13T12:03:31;103200.50;;;12.61;54.61
13612;BME280;6877;51.436;6.774;2023-02-13T12:08:39;103186.44;;;12.56;54.82
13612;BME280;6877;51.436;6.774;2023-02-13T12:11:35;103180.31;;;12.57;54.88
13612;BME280;6877;51.436;6.774;2023-02-13T12:14:13;103187.31;;;12.56;54.99
13612;BME280;6877;51.436;6.774;2023-02-13T12:16:49;103189.94;;;12.56;55.08
13612;BME280;6877;51.436;6.774;2023-02-13T12:19:23;103184.69;;;12.58;54.99
13612;BME280;6877;51.436;6.774;2023-02-13T12:24:56;103175.00;;;12.49;55.50
13612;BME280;6877;51.436;6.774;2023-02-13T12:28:12;103168.81;;;12.47;55.59
13612;BME280;6877;51.436;6.774;2023-02-13T12:39:20;103162.78;;;12.52;55.84
13612;BME280;6877;51.436;6.774;2023-02-13T12:52:21;103148.38;;;12.99;54.95
13612;BME280;6877;51.436;6.774;2023-02-13T12:57:47;103144.81;;;12.95;54.86
13612;BME280;6877;51.436;6.774;2023-02-13T13:03:50;103136.16;;;13.03;55.04
13612;BME280;6877;51.436;6.774;2023-02-13T13:12:23;103128.38;;;13.16;54.77
13612;BME280;6877;51.436;6.774;2023-02-13T13:26:45;103123.06;;;13.10;54.16
13612;BME280;6877;51.436;6.774;2023-02-13T13:29:26;103113.44;;;13.09;53.80
13612;BME280;6877;51.436;6.774;2023-02-13T13:31:57;103108.16;;;13.06;53.94
13612;BME280;6877;51.436;6.774;2023-02-13T13:34:26;103104.66;;;13.09;53.84
13612;BME280;6877;51.436;6.774;2023-02-13T13:39:48;103100.38;;;13.18;53.40
13612;BME280;6877;51.436;6.774;2023-02-13T13:48:08;103094.31;;;13.30;52.87
13612;BME280;6877;51.436;6.774;2023-02-13T13:50:43;103091.72;;;13.32;52.75
13612;BME280;6877;51.436;6.774;2023-02-13T13:53:18;103095.25;;;13.34;52.02
13612;BME280;6877;51.436;6.774;2023-02-13T13:58:24;103090.84;;;13.33;51.90
13612;BME280;6877;51.436;6.774;2023-02-13T14:01:23;103084.72;;;13.31;51.86
13612;BME280;6877;51.436;6.774;2023-02-13T14:04:03;103082.97;;;13.33;51.87
13612;BME280;6877;51.436;6.774;2023-02-13T14:14:56;103081.25;;;13.38;51.71
13612;BME280;6877;51.436;6.774;2023-02-13T14:20:40;103075.09;;;13.36;51.91
13612;BME280;6877;51.436;6.774;2023-02-13T14:23:16;103067.19;;;13.36;51.93
13612;BME280;6877;51.436;6.774;2023-02-13T14:25:44;103055.81;;;13.35;51.83
13612;BME280;6877;51.436;6.774;2023-02-13T14:28:23;103059.31;;;13.36;51.85
13612;BME280;6877;51.436;6.774;2023-02-13T14:31:02;103054.94;;;13.38;51.61
13612;BME280;6877;51.436;6.774;2023-02-13T14:33:31;103054.94;;;13.35;51.62
13612;BME280;6877;51.436;6.774;2023-02-13T14:36:05;103058.44;;;13.34;51.80
13612;BME280;6877;51.436;6.774;2023-02-13T14:38:33;103059.31;;;13.36;51.56
13612;BME280;6877;51.436;6.774;2023-02-13T14:41:01;103052.28;;;13.36;51.28
13612;BME280;6877;51.436;6.774;2023-02-13T14:43:32;103055.81;;;13.38;51.20
13612;BME280;6877;51.436;6.774;2023-02-13T14:46:26;103049.66;;;13.35;51.75
13612;BME280;6877;51.436;6.774;2023-02-13T14:49:05;103052.28;;;13.32;51.71
13612;BME280;6877;51.436;6.774;2023-02-13T14:51:44;103050.50;;;13.28;51.68
13612;BME280;6877;51.436;6.774;2023-02-13T14:56:49;103039.09;;;13.29;51.52
13612;BME280;6877;51.436;6.774;2023-02-13T14:59:20;103041.72;;;13.27;51.79
13612;BME280;6877;51.436;6.774;2023-02-13T15:02:11;103039.97;;;13.26;51.65
13612;BME280;6877;51.436;6.774;2023-02-13T15:04:53;103037.34;;;13.25;51.45
13612;BME280;6877;51.436;6.774;2023-02-13T15:07:25;103034.66;;;13.21;51.64
13612;BME280;6877;51.436;6.774;2023-02-13T15:10:06;103039.00;;;13.16;51.82
13612;BME280;6877;51.436;6.774;2023-02-13T15:12:42;103040.69;;;13.11;52.07
13612;BME280;6877;51.436;6.774;2023-02-13T15:15:26;103036.28;;;13.07;52.18
13612;BME280;6877;51.436;6.774;2023-02-13T15:17:59;103037.16;;;13.06;52.15
13612;BME280;6877;51.436;6.774;2023-02-13T15:20:33;103026.63;;;13.03;52.51
13612;BME280;6877;51.436;6.774;2023-02-13T15:23:01;103035.38;;;12.99;52.57
13612;BME280;6877;51.436;6.774;2023-02-13T15:25:35;103037.06;;;12.94;52.78
13612;BME280;6877;51.436;6.774;2023-02-13T15:28:04;103029.16;;;12.89;52.87
13612;BME280;6877;51.436;6.774;2023-02-13T15:30:32;103030.00;;;12.87;52.99
13612;BME280;6877;51.436;6.774;2023-02-13T15:33:20;103029.97;;;12.84;53.19
13612;BME280;6877;51.436;6.774;2023-02-13T15:36:00;103036.06;;;12.80;52.91
13612;BME280;6877;51.436;6.774;2023-02-13T15:38:35;103036.91;;;12.75;53.41
13612;BME280;6877;51.436;6.774;2023-02-13T15:43:50;103048.19;;;12.65;53.63
13612;BME280;6877;51.436;6.774;2023-02-13T15:46:22;103052.53;;;12.60;53.96
13612;BME280;6877;51.436;6.774;2023-02-13T15:48:51;103038.47;;;12.55;53.94
13612;BME280;6877;51.436;6.774;2023-02-13T15:51:26;103043.63;;;12.46;54.29
13612;BME280;6877;51.436;6.774;2023-02-13T15:53:55;103033.88;;;12.36;54.37
13612;BME280;6877;51.436;6.774;2023-02-13T15:56:22;103032.91;;;12.24;54.76
13612;BME280;6877;51.436;6.774;2023-02-13T15:58:54;103027.50;;;12.12;55.15
13612;BME280;6877;51.436;6.774;2023-02-13T16:01:22;103026.53;;;12.04;55.30
13612;BME280;6877;51.436;6.774;2023-02-13T16:03:51;103033.50;;;12.00;55.65
13612;BME280;6877;51.436;6.774;2023-02-13T16:06:21;103022.94;;;11.96;55.70
13612;BME280;6877;51.436;6.774;2023-02-13T16:08:56;103026.44;;;11.95;55.89
13612;BME280;6877;51.436;6.774;2023-02-13T16:14:19;103019.22;;;11.80;55.89
13612;BME280;6877;51.436;6.774;2023-02-13T16:19:24;103020.56;;;11.50;56.90